Time;durP1;ratioP1;P1;durP2;ratioP2;P2;SDS_P1;SDS_P2;PMS_P1;PMS_P2;Temp;Humidity;BMP_temperature;BMP_pressure;BME280_temperature;BME280_humidity;BME280_pressure;Samples;Min_cycle;Max_cycle;Signal;HPM_P1;HPM_P2
2022/10/22 00:01:58;;;;;;;28.30;17.33;;;;;;;8.16;nan;95888.81;5072323;28;20262;-71
2022/10/22 00:04:24;;;;;;;37.53;17.25;;;;;;;8.33;nan;95897.94;5072245;28;20220;-71
2022/10/22 00:06:51;;;;;;;28.00;18.10;;;;;;;8.37;nan;95905.50;5072968;28;20226;-72
2022/10/22 00:09:19;;;;;;;29.33;18.45;;;;;;;8.42;nan;95902.88;5073157;28;20506;-72
2022/10/22 00:11:46;;;;;;;32.45;17.98;;;;;;;8.45;nan;95901.16;5071541;28;20306;-72
2022/10/22 00:14:13;;;;;;;25.77;16.65;;;;;;;8.47;nan;95896.91;5073843;28;20475;-72
2022/10/22 00:16:39;;;;;;;25.08;18.67;;;;;;;8.56;nan;95900.19;5073331;28;20209;-72
2022/10/22 00:19:08;;;;;;;24.50;16.33;;;;;;;8.59;nan;95900.16;5076711;28;20626;-72
2022/10/22 00:21:34;;;;;;;23.15;17.52;;;;;;;8.16;nan;95908.22;5072199;28;20384;-72
2022/10/22 00:24:01;;;;;;;27.50;17.38;;;;;;;7.75;nan;95904.41;5071122;28;20724;-72
2022/10/22 00:26:29;;;;;;;32.53;17.77;;;;;;;7.96;nan;95890.69;5074976;28;20202;-72
2022/10/22 00:28:56;;;;;;;25.92;17.58;;;;;;;8.04;nan;95881.34;5075201;28;20758;-72
2022/10/22 00:31:23;;;;;;;28.27;17.33;;;;;;;8.32;nan;95875.97;5075238;28;20362;-72
2022/10/22 00:33:49;;;;;;;25.50;16.95;;;;;;;8.23;nan;95884.50;5074649;28;20298;-73
2022/10/22 00:36:17;;;;;;;27.52;16.75;;;;;;;8.05;nan;95883.00;5075653;28;20211;-72
2022/10/22 00:38:43;;;;;;;28.80;17.90;;;;;;;8.12;nan;95879.56;5077078;28;20267;-71
2022/10/22 00:41:10;;;;;;;25.67;17.05;;;;;;;8.17;nan;95882.88;5075472;28;20225;-74
2022/10/22 00:43:58;;;;;;;23.27;16.75;;;;;;;7.84;nan;95890.84;5074465;28;20267;-72
2022/10/22 00:46:24;;;;;;;25.88;16.60;;;;;;;7.93;nan;95888.19;5075917;28;20258;-72
2022/10/22 00:48:52;;;;;;;35.97;17.88;;;;;;;8.09;nan;95888.88;5076216;28;20291;-72
2022/10/22 00:51:21;;;;;;;27.80;17.05;;;;;;;8.33;nan;95890.34;5075400;28;20288;-72
2022/10/22 00:53:52;;;;;;;24.15;16.13;;;;;;;8.09;nan;95894.78;5075953;28;20205;-72
2022/10/22 00:56:20;;;;;;;27.88;17.13;;;;;;;7.90;nan;95880.66;5074580;28;20209;-72
2022/10/22 00:58:52;;;;;;;25.55;17.20;;;;;;;7.50;nan;95870.91;5075882;28;20252;-72
2022/10/22 01:01:23;;;;;;;25.45;17.27;;;;;;;7.27;nan;95870.25;5075572;28;20213;-72
2022/10/22 01:03:50;;;;;;;26.73;15.75;;;;;;;7.03;nan;95866.22;5075189;28;20210;-72
2022/10/22 01:06:22;;;;;;;24.52;17.05;;;;;;;6.99;nan;95862.03;5075670;28;20654;-71
2022/10/22 01:08:58;;;;;;;25.73;16.42;;;;;;;7.09;nan;95857.75;5075725;28;20221;-72
2022/10/22 01:11:31;;;;;;;32.92;17.17;;;;;;;7.50;nan;95849.81;5076170;28;20204;-73
2022/10/22 01:14:05;;;;;;;25.08;17.02;;;;;;;7.44;nan;95853.25;5075104;28;20213;-72
2022/10/22 01:16:42;;;;;;;30.70;17.48;;;;;;;7.34;nan;95851.66;5076682;28;20225;-72
2022/10/22 01:19:30;;;;;;;28.20;17.95;;;;;;;7.31;nan;95850.84;5076499;28;20642;-72
2022/10/22 01:22:03;;;;;;;24.92;17.58;;;;;;;7.35;nan;95845.75;5075972;28;20202;-73
2022/10/22 01:24:47;;;;;;;31.42;19.25;;;;;;;7.24;nan;95837.41;5074715;28;20202;-71
2022/10/22 01:27:24;;;;;;;25.42;17.38;;;;;;;7.62;nan;95831.19;5076149;28;20209;-73
2022/10/22 01:29:58;;;;;;;29.20;19.05;;;;;;;7.70;nan;95839.50;5075410;28;20651;-73
2022/10/22 01:32:28;;;;;;;26.30;18.45;;;;;;;7.92;nan;95827.50;5075121;28;20213;-73
2022/10/22 01:35:00;;;;;;;27.02;19.42;;;;;;;7.87;nan;95836.81;5074209;28;20322;-71
2022/10/22 01:37:30;;;;;;;29.10;19.20;;;;;;;7.63;nan;95827.78;5075227;28;20222;-72
2022/10/22 01:39:59;;;;;;;25.92;18.77;;;;;;;7.55;nan;95834.63;5076171;28;20210;-71
2022/10/22 01:42:26;;;;;;;26.45;17.20;;;;;;;7.28;nan;95828.94;5075395;28;20277;-72
2022/10/22 01:44:54;;;;;;;24.95;18.42;;;;;;;7.48;nan;95829.59;5074371;28;20197;-72
2022/10/22 01:47:36;;;;;;;26.45;17.92;;;;;;;7.75;nan;95825.13;5075280;28;20236;-73
2022/10/22 01:50:24;;;;;;;29.52;18.33;;;;;;;7.96;nan;95824.88;5075271;28;20647;-72
2022/10/22 01:53:06;;;;;;;25.92;17.77;;;;;;;8.07;nan;95823.09;5075644;28;20214;-72
2022/10/22 01:55:41;;;;;;;23.58;17.17;;;;;;;8.16;nan;95819.63;5074897;28;20290;-72
2022/10/22 01:58:20;;;;;;;25.92;18.20;;;;;;;8.25;nan;95824.56;5075992;28;20209;-72
2022/10/22 02:00:57;;;;;;;38.38;17.05;;;;;;;8.33;nan;95822.81;5075439;28;20267;-72
2022/10/22 02:03:29;;;;;;;25.08;17.13;;;;;;;8.26;nan;95821.16;5075318;28;20812;-72
2022/10/22 02:05:59;;;;;;;21.63;15.80;;;;;;;8.17;nan;95831.38;5074494;28;20805;-72
2022/10/22 02:08:29;;;;;;;23.20;17.52;;;;;;;7.62;nan;95821.06;5076329;28;20214;-73
2022/10/22 02:10:58;;;;;;;20.60;16.23;;;;;;;7.87;nan;95830.06;5076462;28;20237;-73
2022/10/22 02:13:29;;;;;;;23.60;17.98;;;;;;;7.35;nan;95823.00;5073907;28;20201;-73
2022/10/22 02:15:59;;;;;;;23.73;17.33;;;;;;;7.40;nan;95820.44;5074306;28;20291;-72
2022/10/22 02:18:30;;;;;;;28.15;18.13;;;;;;;7.08;nan;95823.22;5074888;28;20686;-71
2022/10/22 02:20:59;;;;;;;25.92;17.50;;;;;;;7.42;nan;95819.53;5075217;28;20243;-72
2022/10/22 02:23:26;;;;;;;24.70;16.70;;;;;;;7.70;nan;95809.16;5074061;28;20314;-72
2022/10/22 02:26:00;;;;;;;23.88;16.40;;;;;;;7.96;nan;95814.75;5074917;28;20209;-73
2022/10/22 02:28:35;;;;;;;24.13;16.95;;;;;;;8.15;nan;95833.97;5074983;28;20574;-72
2022/10/22 02:31:10;;;;;;;21.05;15.85;;;;;;;8.09;nan;95826.44;5074314;28;20221;-72
2022/10/22 02:33:42;;;;;;;25.75;16.52;;;;;;;8.26;nan;95835.50;5074165;28;20638;-73
2022/10/22 02:36:10;;;;;;;27.77;17.23;;;;;;;8.29;nan;95828.72;5074259;28;20248;-73
2022/10/22 02:38:38;;;;;;;22.00;17.25;;;;;;;8.20;nan;95819.53;5074002;28;20653;-73
2022/10/22 02:41:05;;;;;;;24.08;16.75;;;;;;;8.35;nan;95825.31;5074674;28;20213;-71
2022/10/22 02:43:40;;;;;;;20.92;16.10;;;;;;;8.46;nan;95836.13;5073481;28;20262;-73
2022/10/22 02:46:09;;;;;;;24.13;17.33;;;;;;;8.39;nan;95837.94;5073511;28;20233;-72
2022/10/22 02:48:35;;;;;;;25.23;16.02;;;;;;;7.94;nan;95843.47;5073983;28;20209;-72
2022/10/22 02:51:02;;;;;;;24.08;17.17;;;;;;;7.84;nan;95845.28;5074254;28;20209;-72
2022/10/22 02:53:29;;;;;;;21.98;16.83;;;;;;;7.71;nan;95841.19;5072773;28;20836;-72
2022/10/22 02:55:55;;;;;;;28.75;17.27;;;;;;;7.36;nan;95839.84;5073507;28;20226;-72
2022/10/22 02:58:22;;;;;;;25.05;17.80;;;;;;;7.26;nan;95828.13;5073015;28;20229;-72
2022/10/22 03:00:49;;;;;;;29.15;17.33;;;;;;;7.23;nan;95832.34;5073633;28;20206;-72
2022/10/22 03:03:17;;;;;;;27.70;18.63;;;;;;;7.36;nan;95834.78;5073822;28;20306;-72
2022/10/22 03:05:44;;;;;;;25.83;17.38;;;;;;;7.28;nan;95840.75;5074864;28;20201;-72
2022/10/22 03:08:10;;;;;;;27.42;18.15;;;;;;;7.23;nan;95833.19;5073628;28;20347;-72
2022/10/22 03:10:37;;;;;;;30.75;17.88;;;;;;;7.55;nan;95825.34;5074154;28;20757;-72
2022/10/22 03:13:04;;;;;;;26.13;18.00;;;;;;;7.56;nan;95826.16;5074026;28;20233;-72
2022/10/22 03:15:31;;;;;;;25.15;17.77;;;;;;;7.34;nan;95826.38;5073010;28;20257;-72
2022/10/22 03:17:57;;;;;;;24.00;17.23;;;;;;;7.42;nan;95833.91;5073755;28;20205;-71
2022/10/22 03:20:26;;;;;;;28.73;17.30;;;;;;;7.49;nan;95826.22;5074205;28;20282;-73
2022/10/22 03:22:53;;;;;;;30.98;19.20;;;;;;;7.33;nan;95824.69;5073467;28;20243;-72
2022/10/22 03:25:24;;;;;;;28.80;19.67;;;;;;;7.21;nan;95819.72;5073890;28;20213;-72
2022/10/22 03:27:54;;;;;;;26.25;18.65;;;;;;;7.48;nan;95829.59;5073410;28;20703;-72
2022/10/22 03:30:21;;;;;;;26.55;19.45;;;;;;;7.40;nan;95828.84;5073861;28;20713;-72
2022/10/22 03:32:47;;;;;;;27.55;20.17;;;;;;;7.49;nan;95828.75;5073518;28;20209;-72
2022/10/22 03:35:14;;;;;;;30.08;19.33;;;;;;;7.57;nan;95817.72;5073398;28;20672;-71
2022/10/22 03:37:42;;;;;;;31.52;20.10;;;;;;;7.20;nan;95823.09;5073071;28;20209;-72
2022/10/22 03:40:11;;;;;;;27.60;19.67;;;;;;;7.51;nan;95819.47;5073735;28;20258;-71
2022/10/22 03:42:38;;;;;;;30.75;19.08;;;;;;;7.57;nan;95820.25;5073709;28;20211;-72
2022/10/22 03:45:06;;;;;;;31.15;18.88;;;;;;;7.73;nan;95820.06;5072824;28;20287;-72
2022/10/22 03:47:33;;;;;;;29.08;19.23;;;;;;;7.87;nan;95822.47;5072759;28;20264;-73
2022/10/22 03:50:00;;;;;;;27.90;18.45;;;;;;;7.87;nan;95827.53;5073931;28;20236;-72
2022/10/22 03:52:27;;;;;;;27.02;19.27;;;;;;;7.94;nan;95824.06;5073408;28;20205;-72
2022/10/22 03:54:55;;;;;;;27.73;19.50;;;;;;;7.86;nan;95820.81;5072906;28;20298;-72
2022/10/22 03:57:21;;;;;;;24.85;18.15;;;;;;;7.98;nan;95828.25;5073357;28;20760;-71
2022/10/22 03:59:49;;;;;;;34.08;20.25;;;;;;;8.10;nan;95825.59;5073784;28;20266;-72
2022/10/22 04:02:16;;;;;;;26.48;19.08;;;;;;;7.84;nan;95808.16;5073155;28;20247;-73
2022/10/22 04:04:43;;;;;;;27.35;18.73;;;;;;;7.94;nan;95805.50;5072230;28;20228;-72
2022/10/22 04:07:10;;;;;;;28.00;20.10;;;;;;;7.75;nan;95808.25;5073055;28;20250;-72
2022/10/22 04:09:37;;;;;;;37.33;23.75;;;;;;;7.31;nan;95813.75;5073419;28;20205;-72
2022/10/22 04:12:06;;;;;;;38.00;22.70;;;;;;;7.38;nan;95828.03;5079185;28;20575;-72
2022/10/22 04:14:34;;;;;;;36.58;22.95;;;;;;;7.19;nan;95816.38;5073984;28;20289;-72
2022/10/22 04:17:00;;;;;;;31.35;22.42;;;;;;;7.49;nan;95813.56;5074157;28;20742;-72
2022/10/22 04:19:27;;;;;;;35.47;22.50;;;;;;;7.46;nan;95806.00;5074425;28;20209;-72
2022/10/22 04:21:54;;;;;;;39.13;24.38;;;;;;;7.50;nan;95805.13;5074553;28;20213;-71
2022/10/22 04:24:21;;;;;;;36.13;23.48;;;;;;;7.29;nan;95812.94;5074128;28;20747;-72
2022/10/22 04:26:48;;;;;;;33.65;23.70;;;;;;;7.46;nan;95803.47;5073029;28;20197;-71
2022/10/22 04:29:16;;;;;;;38.13;24.23;;;;;;;7.56;nan;95806.78;5072536;28;20969;-72
2022/10/22 04:31:42;;;;;;;36.90;24.13;;;;;;;7.73;nan;95807.44;5072967;28;20247;-71
2022/10/22 04:34:09;;;;;;;36.83;22.92;;;;;;;7.94;nan;95815.63;5072944;28;20206;-72
2022/10/22 04:36:36;;;;;;;35.28;23.23;;;;;;;7.99;nan;95812.19;5072374;28;20746;-71
2022/10/22 04:39:04;;;;;;;33.38;22.27;;;;;;;7.99;nan;95809.66;5073163;28;20206;-72
2022/10/22 04:41:32;;;;;;;29.63;21.75;;;;;;;8.17;nan;95811.13;5072389;28;20314;-71
2022/10/22 04:44:00;;;;;;;36.22;22.52;;;;;;;8.25;nan;95803.44;5073866;28;20754;-71
2022/10/22 04:46:30;;;;;;;31.92;22.40;;;;;;;8.32;nan;95805.06;5072270;28;20225;-71
2022/10/22 04:48:57;;;;;;;31.92;21.80;;;;;;;8.36;nan;95806.72;5073174;28;20201;-71
2022/10/22 04:51:26;;;;;;;38.25;21.92;;;;;;;8.31;nan;95803.38;5073092;28;20272;-73
2022/10/22 04:53:53;;;;;;;35.25;22.17;;;;;;;8.31;nan;95819.41;5073318;28;20260;-72
2022/10/22 04:56:23;;;;;;;37.20;23.02;;;;;;;8.44;nan;95817.56;5072914;28;20240;-70
2022/10/22 04:58:51;;;;;;;36.55;23.05;;;;;;;8.49;nan;95828.50;5073166;28;21788;-70
2022/10/22 05:01:20;;;;;;;35.78;23.25;;;;;;;8.51;nan;95821.72;5074960;28;20687;-71
2022/10/22 05:03:50;;;;;;;38.20;23.05;;;;;;;8.61;nan;95827.50;5076651;28;21430;-72
2022/10/22 05:06:19;;;;;;;56.45;35.28;;;;;;;8.45;nan;95829.38;5075998;28;20205;-72
2022/10/22 05:08:46;;;;;;;61.25;35.90;;;;;;;8.42;nan;95848.00;5076727;28;20251;-71
2022/10/22 05:11:14;;;;;;;48.10;28.63;;;;;;;8.51;nan;95854.66;5076505;28;20263;-72
2022/10/22 05:13:40;;;;;;;35.40;23.10;;;;;;;8.35;nan;95845.56;5076458;28;20290;-71
2022/10/22 05:16:07;;;;;;;51.63;26.10;;;;;;;8.26;nan;95851.56;5076189;28;20778;-74
2022/10/22 05:18:36;;;;;;;43.35;24.90;;;;;;;8.27;nan;95847.31;5076222;28;20206;-71
2022/10/22 05:21:04;;;;;;;32.78;21.15;;;;;;;8.26;nan;95838.88;5076287;28;20289;-72
2022/10/22 05:23:32;;;;;;;41.08;21.85;;;;;;;8.40;nan;95842.13;5075975;28;20307;-72
2022/10/22 05:26:02;;;;;;;32.75;22.65;;;;;;;8.15;nan;95843.25;5075851;28;20232;-72
2022/10/22 05:28:28;;;;;;;35.60;22.42;;;;;;;8.08;nan;95850.06;5076161;28;20205;-72
2022/10/22 05:30:57;;;;;;;41.50;24.08;;;;;;;7.96;nan;95847.66;5075936;28;20201;-72
2022/10/22 05:33:23;;;;;;;30.52;22.90;;;;;;;8.07;nan;95850.94;5075381;28;20724;-72
2022/10/22 05:35:51;;;;;;;40.75;23.77;;;;;;;8.13;nan;95853.41;5074089;28;20673;-71
2022/10/22 05:38:19;;;;;;;33.20;22.55;;;;;;;8.21;nan;95853.28;5075882;28;20213;-72
2022/10/22 05:40:46;;;;;;;94.32;47.45;;;;;;;8.33;nan;95847.28;5077502;28;20298;-71
2022/10/22 05:43:13;;;;;;;58.25;33.15;;;;;;;8.57;nan;95846.97;5077343;28;20201;-72
2022/10/22 05:45:41;;;;;;;54.67;32.08;;;;;;;8.82;nan;95848.31;5076836;28;20682;-73
2022/10/22 05:48:08;;;;;;;46.80;26.00;;;;;;;8.72;nan;95851.81;5076326;28;20370;-72
2022/10/22 05:50:36;;;;;;;39.05;24.15;;;;;;;8.96;nan;95852.34;5075266;28;20218;-71
2022/10/22 05:53:03;;;;;;;39.42;24.20;;;;;;;9.45;nan;95849.88;5076143;28;20208;-71
2022/10/22 05:55:35;;;;;;;38.95;24.83;;;;;;;9.54;nan;95850.56;5075363;28;20206;-74
2022/10/22 05:58:02;;;;;;;60.53;29.65;;;;;;;9.62;nan;95842.00;5075355;28;20205;-71
2022/10/22 06:00:29;;;;;;;57.00;33.17;;;;;;;9.46;nan;95837.16;5075347;28;20231;-72
2022/10/22 06:02:56;;;;;;;63.20;33.00;;;;;;;9.32;nan;95849.25;5074463;28;20241;-71
2022/10/22 06:05:23;;;;;;;63.50;31.65;;;;;;;9.35;nan;95854.28;5075461;28;20202;-71
2022/10/22 06:07:49;;;;;;;56.83;34.80;;;;;;;9.58;nan;95851.34;5075256;28;20233;-71
2022/10/22 06:10:19;;;;;;;67.57;36.92;;;;;;;10.28;nan;95851.78;5075235;28;20585;-70
2022/10/22 06:12:48;;;;;;;45.58;25.25;;;;;;;10.79;nan;95850.69;5074823;28;20209;-73
2022/10/22 06:15:17;;;;;;;36.47;22.38;;;;;;;10.69;nan;95859.38;5074225;28;20821;-71
2022/10/22 06:17:44;;;;;;;30.75;20.20;;;;;;;10.74;nan;95854.19;5075232;28;20237;-71
2022/10/22 06:20:12;;;;;;;35.35;22.25;;;;;;;10.67;nan;95858.56;5074838;28;20219;-73
2022/10/22 06:22:39;;;;;;;30.55;21.80;;;;;;;10.68;nan;95859.41;5074950;28;20193;-72
2022/10/22 06:25:07;;;;;;;30.08;19.00;;;;;;;10.53;nan;95851.25;5074842;28;20214;-71
2022/10/22 06:27:34;;;;;;;34.63;21.33;;;;;;;10.72;nan;95859.31;5074364;28;20292;-72
2022/10/22 06:30:02;;;;;;;34.10;19.92;;;;;;;10.78;nan;95854.09;5075190;28;20869;-73
2022/10/22 06:32:29;;;;;;;37.08;19.73;;;;;;;10.93;nan;95870.72;5075379;28;20206;-72
2022/10/22 06:34:55;;;;;;;36.80;23.52;;;;;;;11.69;nan;95868.09;5074308;28;20198;-73
2022/10/22 06:37:22;;;;;;;38.65;22.75;;;;;;;12.91;nan;95861.31;5073604;28;20721;-71
2022/10/22 06:39:49;;;;;;;34.42;22.27;;;;;;;13.74;nan;95849.38;5075001;28;20227;-73
2022/10/22 06:42:16;;;;;;;31.02;21.83;;;;;;;13.53;nan;95850.91;5075450;28;20206;-72
2022/10/22 06:44:42;;;;;;;44.78;24.92;;;;;;;12.89;nan;95852.88;5075000;28;20205;-72
2022/10/22 06:47:10;;;;;;;51.53;30.50;;;;;;;12.72;nan;95844.91;5074914;28;20212;-72
2022/10/22 06:49:37;;;;;;;44.30;26.63;;;;;;;12.32;nan;95860.50;5075309;28;20587;-72
2022/10/22 06:52:04;;;;;;;41.67;24.70;;;;;;;12.22;nan;95849.72;5074508;28;20206;-72
2022/10/22 06:54:31;;;;;;;35.13;22.90;;;;;;;12.33;nan;95857.09;5073945;28;20263;-71
2022/10/22 06:56:58;;;;;;;43.63;23.67;;;;;;;12.47;nan;95859.25;5075114;28;20464;-72
2022/10/22 06:59:24;;;;;;;41.33;23.20;;;;;;;12.59;nan;95854.63;5074146;28;20740;-72
2022/10/22 07:01:51;;;;;;;30.90;20.40;;;;;;;12.49;nan;95863.41;5074429;28;21508;-71
2022/10/22 07:04:19;;;;;;;29.55;19.85;;;;;;;12.38;nan;95862.88;5075203;28;20207;-72
2022/10/22 07:06:46;;;;;;;32.95;20.02;;;;;;;12.38;nan;95857.78;5075061;28;20225;-73
2022/10/22 07:09:12;;;;;;;57.10;33.67;;;;;;;12.47;nan;95851.59;5073843;28;20267;-72
2022/10/22 07:11:41;;;;;;;59.90;33.60;;;;;;;12.28;nan;95853.81;5074454;28;21886;-71
2022/10/22 07:14:08;;;;;;;37.03;25.15;;;;;;;12.32;nan;95854.59;5073375;28;20695;-71
2022/10/22 07:16:38;;;;;;;58.65;33.65;;;;;;;12.39;nan;95856.91;5074252;28;20217;-71
2022/10/22 07:19:05;;;;;;;41.97;25.20;;;;;;;12.23;nan;95856.50;5073042;28;20295;-71
2022/10/22 07:21:33;;;;;;;38.53;22.58;;;;;;;12.54;nan;95853.09;5073940;28;20271;-70
2022/10/22 07:24:01;;;;;;;33.97;22.40;;;;;;;12.86;nan;95853.00;5075003;28;20209;-74
2022/10/22 07:26:29;;;;;;;30.02;21.27;;;;;;;13.07;nan;95846.41;5076080;28;20194;-73
2022/10/22 07:28:56;;;;;;;32.75;21.75;;;;;;;13.07;nan;95843.03;5073739;28;20684;-73
2022/10/22 07:31:23;;;;;;;30.67;19.52;;;;;;;13.66;nan;95845.41;5074248;28;20232;-71
2022/10/22 07:33:50;;;;;;;27.20;19.65;;;;;;;14.35;nan;95839.59;5074966;28;20266;-72
2022/10/22 07:36:17;;;;;;;27.73;19.85;;;;;;;14.67;nan;95841.00;5073101;28;20513;-70
2022/10/22 07:38:46;;;;;;;27.77;18.70;;;;;;;15.00;nan;95836.34;5074554;28;20213;-74
2022/10/22 07:41:14;;;;;;;27.02;19.92;;;;;;;15.26;nan;95835.31;5074696;28;20201;-73
2022/10/22 07:43:43;;;;;;;31.42;21.95;;;;;;;15.58;nan;95823.81;5074079;28;20214;-70
2022/10/22 07:46:10;;;;;;;65.20;34.85;;;;;;;15.69;nan;95820.81;5073557;28;20237;-71
2022/10/22 07:48:37;;;;;;;28.38;20.60;;;;;;;16.26;nan;95817.50;5072614;28;20208;-72
2022/10/22 07:51:04;;;;;;;25.20;18.67;;;;;;;16.87;nan;95813.03;5073481;28;20209;-72
2022/10/22 07:53:31;;;;;;;24.73;18.65;;;;;;;17.65;nan;95812.72;5073286;28;20259;-71
2022/10/22 07:55:59;;;;;;;25.73;19.25;;;;;;;20.22;nan;95812.47;5072935;28;20222;-71
2022/10/22 07:58:26;;;;;;;31.63;20.42;;;;;;;21.73;nan;95802.13;5072908;28;20201;-71
2022/10/22 08:00:56;;;;;;;24.50;18.70;;;;;;;23.16;nan;95804.41;5071011;28;20631;-71
2022/10/22 08:03:23;;;;;;;29.38;19.38;;;;;;;24.25;nan;95800.66;5072638;28;20229;-71
2022/10/22 08:05:51;;;;;;;27.33;18.27;;;;;;;23.91;nan;95797.19;5072832;28;20217;-73
2022/10/22 08:08:18;;;;;;;22.70;16.75;;;;;;;23.48;nan;95786.53;5074722;28;20222;-72
2022/10/22 08:10:46;;;;;;;20.75;17.42;;;;;;;24.35;nan;95772.22;5075010;28;20206;-69
2022/10/22 08:13:14;;;;;;;22.23;16.90;;;;;;;24.68;nan;95780.03;5074863;28;20210;-70
2022/10/22 08:15:42;;;;;;;24.52;16.75;;;;;;;25.12;nan;95782.69;5074501;28;20494;-71
2022/10/22 08:18:09;;;;;;;25.77;16.77;;;;;;;26.21;nan;95778.88;5073368;28;20437;-72
2022/10/22 08:20:36;;;;;;;24.63;16.83;;;;;;;27.31;nan;95769.38;5073379;28;20258;-72
2022/10/22 08:23:03;;;;;;;22.83;16.90;;;;;;;27.18;nan;95768.81;5074728;28;20667;-72
2022/10/22 08:25:30;;;;;;;24.92;18.05;;;;;;;24.58;nan;95778.25;5073984;28;20201;-72
2022/10/22 08:27:57;;;;;;;25.02;17.63;;;;;;;23.89;nan;95780.06;5073613;28;20283;-73
2022/10/22 08:30:26;;;;;;;28.48;21.67;;;;;;;24.49;nan;95771.19;5073229;28;20206;-71
2022/10/22 08:32:53;;;;;;;31.83;20.10;;;;;;;25.44;nan;95767.91;5072405;28;20216;-73
2022/10/22 08:35:20;;;;;;;24.17;16.95;;;;;;;26.42;nan;95766.66;5074612;28;20212;-71
2022/10/22 08:37:46;;;;;;;23.13;17.33;;;;;;;27.22;nan;95770.22;5076621;28;20217;-71
2022/10/22 08:40:22;;;;;;;20.33;15.13;;;;;;;26.87;nan;95766.25;5077321;28;20807;-73
2022/10/22 08:43:21;;;;;;;19.75;16.83;;;;;;;25.05;nan;95774.53;5078821;28;20225;-72
2022/10/22 08:46:03;;;;;;;21.25;15.48;;;;;;;26.31;nan;95769.34;5076671;28;20275;-72
2022/10/22 08:48:43;;;;;;;23.75;15.10;;;;;;;27.25;nan;95762.09;5081074;28;20747;-73
2022/10/22 08:51:15;;;;;;;23.73;15.68;;;;;;;27.34;nan;95763.88;5077363;28;20197;-72
2022/10/22 08:53:51;;;;;;;28.52;17.50;;;;;;;26.42;nan;95771.88;5080065;28;20209;-73
2022/10/22 08:56:23;;;;;;;24.05;16.58;;;;;;;25.36;nan;95772.91;5079423;28;20209;-73
2022/10/22 08:58:56;;;;;;;19.08;16.23;;;;;;;26.73;nan;95759.63;5080560;28;20213;-73
2022/10/22 09:01:34;;;;;;;17.92;15.15;;;;;;;27.63;nan;95775.19;5078569;28;20212;-71
2022/10/22 09:04:09;;;;;;;19.88;15.70;;;;;;;26.91;nan;95767.66;5079249;28;20205;-73
2022/10/22 09:06:40;;;;;;;21.40;16.52;;;;;;;26.49;nan;95759.13;5080011;28;20229;-72
2022/10/22 09:09:12;;;;;;;27.25;16.63;;;;;;;27.08;nan;95753.97;5079194;28;20433;-74
2022/10/22 09:11:43;;;;;;;26.63;17.13;;;;;;;27.41;nan;95754.56;5078787;28;21355;-74
2022/10/22 09:14:14;;;;;;;20.83;15.13;;;;;;;26.67;nan;95746.31;5078867;28;20209;-72
2022/10/22 09:17:05;;;;;;;28.55;17.27;;;;;;;26.24;nan;95759.53;5080094;28;20345;-73
2022/10/22 09:19:39;;;;;;;24.33;16.15;;;;;;;26.34;nan;95743.03;5079370;28;20205;-72
2022/10/22 09:22:36;;;;;;;20.85;17.38;;;;;;;24.61;nan;95752.84;5082766;28;20254;-70
2022/10/22 09:25:16;;;;;;;19.00;16.98;;;;;;;22.30;nan;95755.13;5079722;28;20214;-74
2022/10/22 09:27:43;;;;;;;25.52;17.20;;;;;;;22.12;nan;95738.28;5080000;28;20198;-75
2022/10/22 09:30:15;;;;;;;26.70;16.27;;;;;;;21.77;nan;95734.66;5079570;28;20202;-72
2022/10/22 09:32:44;;;;;;;71.38;22.15;;;;;;;23.12;nan;95737.31;5079249;28;21012;-72
2022/10/22 09:35:13;;;;;;;22.27;17.35;;;;;;;23.51;nan;95743.97;5074552;28;20538;-70
2022/10/22 09:37:49;;;;;;;22.92;16.33;;;;;;;23.12;nan;95734.72;5075459;28;20225;-70
2022/10/22 09:40:17;;;;;;;29.23;19.55;;;;;;;22.39;nan;95728.59;5075034;28;20201;-71
2022/10/22 09:42:45;;;;;;;30.20;18.98;;;;;;;20.92;nan;95721.19;5073852;28;20653;-70
2022/10/22 09:45:18;;;;;;;26.60;21.50;;;;;;;20.21;nan;95723.06;5071343;28;20209;-72
2022/10/22 09:47:46;;;;;;;29.63;20.60;;;;;;;19.29;nan;95727.66;5073880;28;20610;-71
2022/10/22 09:50:25;;;;;;;36.58;22.83;;;;;;;18.73;nan;95723.09;5073425;28;20206;-72
2022/10/22 09:53:00;;;;;;;31.45;25.15;;;;;;;18.52;nan;95719.94;5074052;28;20628;-73
2022/10/22 09:55:28;;;;;;;38.60;24.23;;;;;;;18.59;nan;95731.53;5073674;28;20254;-71
2022/10/22 09:57:56;;;;;;;31.92;21.55;;;;;;;18.85;nan;95717.25;5073411;28;20608;-71
2022/10/22 10:00:23;;;;;;;34.05;22.02;;;;;;;18.88;nan;95723.06;5072206;28;20266;-71
2022/10/22 10:02:56;;;;;;;28.02;22.83;;;;;;;18.31;nan;95706.47;5073293;28;20600;-71
2022/10/22 10:05:30;;;;;;;30.88;21.05;;;;;;;18.34;nan;95701.97;5067957;28;20222;-71
2022/10/22 10:07:58;;;;;;;32.78;21.83;;;;;;;18.17;nan;95702.06;5075166;28;20217;-70
2022/10/22 10:10:38;;;;;;;31.73;22.15;;;;;;;17.82;nan;95706.47;5074791;28;20201;-70
2022/10/22 10:13:17;;;;;;;31.92;21.83;;;;;;;17.87;nan;95706.22;5073972;28;20201;-71
2022/10/22 10:15:53;;;;;;;30.70;22.05;;;;;;;17.77;nan;95710.19;5074096;28;20209;-69
2022/10/22 10:18:35;;;;;;;27.58;21.25;;;;;;;18.05;nan;95695.00;5071635;28;20298;-72
2022/10/22 10:21:09;;;;;;;33.97;20.55;;;;;;;17.70;nan;95691.69;5073998;28;20208;-71
2022/10/22 10:23:46;;;;;;;25.05;21.40;;;;;;;18.17;nan;95693.50;5070726;28;20216;-71
2022/10/22 10:26:19;;;;;;;25.55;19.75;;;;;;;18.40;nan;95689.69;5073399;28;20729;-71
2022/10/22 10:29:02;;;;;;;30.98;20.65;;;;;;;18.30;nan;95687.63;5074165;28;20225;-70
2022/10/22 10:31:39;;;;;;;29.88;19.77;;;;;;;18.43;nan;95684.38;5073822;28;20222;-71
2022/10/22 10:34:20;;;;;;;25.67;20.48;;;;;;;18.19;nan;95684.78;5074000;28;20209;-70
2022/10/22 10:37:00;;;;;;;33.47;21.80;;;;;;;18.22;nan;95676.91;5074307;28;21095;-72
2022/10/22 10:39:37;;;;;;;44.38;27.92;;;;;;;18.35;nan;95675.31;5074222;28;20209;-71
2022/10/22 10:42:15;;;;;;;32.65;20.67;;;;;;;18.48;nan;95661.81;5073194;28;20583;-72
2022/10/22 10:44:52;;;;;;;29.13;20.67;;;;;;;18.42;nan;95664.69;5074086;28;20214;-72
2022/10/22 10:47:33;;;;;;;30.92;19.98;;;;;;;18.52;nan;95658.16;5074472;28;20269;-71
2022/10/22 10:50:17;;;;;;;28.83;22.17;;;;;;;18.76;nan;95654.25;5074152;28;20217;-70
2022/10/22 10:52:50;;;;;;;29.17;19.13;;;;;;;18.78;nan;95652.41;5073869;28;20213;-70
2022/10/22 10:55:27;;;;;;;36.08;21.08;;;;;;;18.62;nan;95638.72;5055789;28;20589;-72
2022/10/22 10:58:00;;;;;;;29.27;19.92;;;;;;;18.78;nan;95629.22;5076144;28;20229;-72
2022/10/22 11:00:29;;;;;;;29.02;18.52;;;;;;;18.78;nan;95628.41;5075022;28;20292;-72
2022/10/22 11:03:29;;;;;;;24.70;18.30;;;;;;;18.53;nan;95626.34;5076201;28;20268;-72
2022/10/22 11:06:04;;;;;;;28.55;20.05;;;;;;;18.11;nan;95620.06;5072813;28;20206;-71
2022/10/22 11:08:42;;;;;;;27.98;18.77;;;;;;;18.17;nan;95617.16;5077431;28;20197;-73
2022/10/22 11:11:17;;;;;;;24.38;18.83;;;;;;;18.54;nan;95615.13;5071558;28;20209;-70
2022/10/22 11:13:49;;;;;;;31.05;18.48;;;;;;;18.48;nan;95602.59;5072549;28;20212;-73
2022/10/22 11:16:23;;;;;;;26.85;19.42;;;;;;;18.25;nan;95594.41;5074769;28;20202;-71
2022/10/22 11:18:57;;;;;;;38.58;19.40;;;;;;;17.98;nan;95589.03;5074529;28;20302;-71
2022/10/22 11:21:33;;;;;;;22.95;17.70;;;;;;;18.21;nan;95577.50;5074310;28;20212;-71
2022/10/22 11:24:11;;;;;;;23.88;18.30;;;;;;;18.52;nan;95580.94;5076794;28;20698;-71
2022/10/22 11:26:45;;;;;;;28.70;18.25;;;;;;;18.71;nan;95578.16;5075217;28;20233;-74
2022/10/22 11:29:16;;;;;;;28.17;19.00;;;;;;;18.52;nan;95571.47;5076434;28;20206;-72
2022/10/22 11:31:44;;;;;;;26.98;18.60;;;;;;;18.42;nan;95574.63;5074949;28;20673;-72
2022/10/22 11:34:18;;;;;;;22.70;18.05;;;;;;;18.58;nan;95575.41;5072314;28;20262;-72
2022/10/22 11:36:48;;;;;;;24.15;17.52;;;;;;;18.75;nan;95561.63;5075247;28;20206;-72
2022/10/22 11:39:30;;;;;;;21.88;17.52;;;;;;;18.66;nan;95555.25;5074577;28;20237;-72
2022/10/22 11:41:58;;;;;;;22.45;17.75;;;;;;;18.61;nan;95557.25;5073572;28;20705;-71
2022/10/22 11:44:27;;;;;;;23.83;16.80;;;;;;;18.58;nan;95555.66;5075700;28;20228;-72
2022/10/22 11:46:57;;;;;;;24.10;17.02;;;;;;;18.43;nan;95555.69;5074894;28;20700;-72
2022/10/22 11:49:26;;;;;;;23.70;17.08;;;;;;;18.58;nan;95555.66;5073414;28;20268;-71
2022/10/22 11:52:22;;;;;;;19.85;16.33;;;;;;;18.60;nan;95553.84;5073747;28;20705;-71